createdAt,value
2023-05-25T00:01:49.532Z,20.95
2023-05-25T00:04:19.596Z,20.19
2023-05-25T00:06:47.711Z,19.78
2023-05-25T00:09:16.399Z,19.94
2023-05-25T00:11:44.954Z,19.75
2023-05-25T00:14:12.480Z,18.25
2023-05-25T00:16:40.844Z,16.78
2023-05-25T00:19:10.312Z,16.21
2023-05-25T00:21:41.515Z,15.74
2023-05-25T00:24:09.105Z,15.42
2023-05-25T00:26:36.540Z,13.55
2023-05-25T00:29:04.718Z,12.28
2023-05-25T00:31:36.901Z,11.31
2023-05-25T00:34:04.517Z,11.60
2023-05-25T00:36:32.229Z,11.81
2023-05-25T00:38:59.721Z,11.87
2023-05-25T00:41:26.972Z,12.45
2023-05-25T00:43:56.854Z,12.04
2023-05-25T00:46:24.247Z,10.94
2023-05-25T00:48:52.868Z,9.74
2023-05-25T00:51:20.507Z,9.41
2023-05-25T00:53:48.090Z,8.48
2023-05-25T00:56:23.021Z,7.47
2023-05-25T00:58:52.886Z,6.50
2023-05-25T01:01:21.869Z,6.14
2023-05-25T01:03:53.482Z,5.31
2023-05-25T01:06:26.866Z,4.64
2023-05-25T01:08:56.590Z,5.01
2023-05-25T01:11:28.089Z,5.03
2023-05-25T01:13:55.817Z,5.74
2023-05-25T01:16:23.553Z,6.58
2023-05-25T01:18:52.321Z,7.16
2023-05-25T01:21:42.185Z,7.98
2023-05-25T01:24:22.109Z,7.47
2023-05-25T01:27:12.881Z,7.85
2023-05-25T01:29:41.797Z,8.01
2023-05-25T01:32:10.073Z,8.25
2023-05-25T01:34:37.339Z,7.69
2023-05-25T01:37:06.389Z,7.82
2023-05-25T01:39:36.500Z,8.11
2023-05-25T01:42:04.356Z,8.01
2023-05-25T01:44:31.771Z,7.45
2023-05-25T01:47:04.310Z,7.53
2023-05-25T01:49:52.228Z,7.79
2023-05-25T01:52:26.920Z,7.29
2023-05-25T01:55:15.926Z,6.99
2023-05-25T01:57:44.547Z,7.43
2023-05-25T02:00:15.255Z,8.10
2023-05-25T02:02:44.331Z,7.87
2023-05-25T02:05:13.315Z,9.22
2023-05-25T02:07:41.709Z,8.99
2023-05-25T02:10:09.496Z,9.78
2023-05-25T02:12:37.069Z,10.02
2023-05-25T02:15:05.454Z,9.50
2023-05-25T02:17:32.837Z,8.57
2023-05-25T02:20:00.428Z,8.02
2023-05-25T02:22:28.011Z,7.24
2023-05-25T02:24:55.381Z,6.15
2023-05-25T02:27:22.759Z,6.09
2023-05-25T02:29:50.761Z,6.87
2023-05-25T02:32:18.187Z,7.20
2023-05-25T02:34:47.026Z,7.27
2023-05-25T02:37:14.401Z,7.10
2023-05-25T02:39:42.508Z,7.83
2023-05-25T02:42:10.123Z,8.88
2023-05-25T02:44:37.756Z,9.17
2023-05-25T02:47:06.904Z,9.19
2023-05-25T02:49:34.606Z,8.93
2023-05-25T02:52:02.563Z,8.29
2023-05-25T02:54:29.761Z,9.08
2023-05-25T02:56:58.428Z,9.74
2023-05-25T02:59:25.720Z,10.40
2023-05-25T03:01:53.383Z,10.79
2023-05-25T03:04:21.718Z,11.00
2023-05-25T03:06:49.194Z,10.18
2023-05-25T03:09:19.267Z,10.07
2023-05-25T03:11:49.936Z,9.68
2023-05-25T03:14:20.209Z,8.86
2023-05-25T03:16:56.790Z,9.09
2023-05-25T03:19:26.161Z,9.57
2023-05-25T03:21:53.747Z,8.35
2023-05-25T03:24:21.638Z,8.07
2023-05-25T03:26:49.633Z,8.57
2023-05-25T03:29:18.011Z,8.92
2023-05-25T03:31:46.189Z,9.27
2023-05-25T03:34:14.873Z,8.80
2023-05-25T03:36:45.574Z,9.80
2023-05-25T03:39:13.723Z,10.31
2023-05-25T03:41:43.141Z,11.36
2023-05-25T03:44:11.878Z,11.39
2023-05-25T03:46:40.238Z,11.95
2023-05-25T03:49:08.818Z,13.68
2023-05-25T03:51:36.414Z,14.88
2023-05-25T03:54:03.719Z,13.83
2023-05-25T03:56:31.824Z,14.41
2023-05-25T03:59:00.353Z,13.59
2023-05-25T04:01:29.798Z,13.69
2023-05-25T04:03:57.686Z,15.61
2023-05-25T04:06:29.821Z,16.79
2023-05-25T04:08:58.016Z,17.80
2023-05-25T04:11:27.405Z,18.03
2023-05-25T04:13:55.347Z,18.25
2023-05-25T04:16:26.824Z,17.75
2023-05-25T04:18:55.926Z,17.76
2023-05-25T04:21:23.619Z,17.92
2023-05-25T04:23:50.940Z,18.51
2023-05-25T04:26:19.520Z,18.60
2023-05-25T04:28:49.486Z,18.71
2023-05-25T04:31:26.887Z,18.91
2023-05-25T04:34:14.195Z,19.05
2023-05-25T04:36:49.694Z,19.18
2023-05-25T04:39:18.920Z,19.18
2023-05-25T04:41:53.056Z,18.76
2023-05-25T04:44:20.582Z,18.00
2023-05-25T04:46:52.322Z,17.60
2023-05-25T04:49:28.416Z,17.86
2023-05-25T04:51:56.175Z,17.47
2023-05-25T04:54:24.601Z,17.95
2023-05-25T04:56:52.123Z,18.56
2023-05-25T04:59:20.705Z,18.13
2023-05-25T05:01:48.691Z,18.22
2023-05-25T05:04:18.127Z,17.55
2023-05-25T05:06:46.186Z,17.80
2023-05-25T05:09:19.145Z,18.37
2023-05-25T05:11:47.610Z,17.90
2023-05-25T05:14:15.078Z,17.26
2023-05-25T05:16:44.865Z,17.54
2023-05-25T05:19:12.494Z,17.55
2023-05-25T05:21:41.337Z,17.00
2023-05-25T05:24:09.326Z,17.06
2023-05-25T05:26:55.467Z,17.40
2023-05-25T05:29:29.865Z,18.02
2023-05-25T05:31:58.112Z,17.93
2023-05-25T05:34:26.394Z,18.13
2023-05-25T05:36:57.879Z,18.79
2023-05-25T05:39:26.765Z,18.26
2023-05-25T05:41:54.983Z,18.51
2023-05-25T05:44:23.473Z,18.69
2023-05-25T05:46:59.885Z,19.48
2023-05-25T05:49:32.120Z,19.46
2023-05-25T05:52:02.764Z,19.06
2023-05-25T05:54:30.311Z,19.12
2023-05-25T05:57:02.385Z,18.43
2023-05-25T05:59:30.082Z,18.90
2023-05-25T06:01:58.056Z,19.29
2023-05-25T06:04:28.421Z,18.98
2023-05-25T06:06:57.133Z,19.62
2023-05-25T06:09:26.273Z,19.93
2023-05-25T06:11:53.857Z,20.46
2023-05-25T06:14:21.503Z,21.23
2023-05-25T06:16:49.426Z,20.79
2023-05-25T06:19:17.772Z,21.43
2023-05-25T06:21:45.373Z,20.63
2023-05-25T06:24:14.677Z,20.04
2023-05-25T06:26:42.250Z,20.17
2023-05-25T06:29:09.926Z,20.70
2023-05-25T06:31:38.677Z,20.95
2023-05-25T06:34:06.367Z,20.92
2023-05-25T06:36:33.964Z,21.35
2023-05-25T06:39:01.592Z,20.62
2023-05-25T06:41:30.662Z,20.33
2023-05-25T06:43:58.716Z,20.62
2023-05-25T06:46:42.326Z,20.38
2023-05-25T06:49:10.948Z,19.94
2023-05-25T06:51:38.700Z,19.99
2023-05-25T06:54:08.415Z,20.14
2023-05-25T06:56:36.341Z,19.97
2023-05-25T06:59:04.029Z,19.80
2023-05-25T07:01:31.382Z,19.20
2023-05-25T07:03:58.721Z,19.76
2023-05-25T07:06:25.931Z,19.70
2023-05-25T07:08:54.984Z,19.02
2023-05-25T07:11:23.179Z,19.85
2023-05-25T07:13:50.349Z,19.91
2023-05-25T07:16:17.849Z,19.90
2023-05-25T07:18:45.300Z,20.00
2023-05-25T07:21:13.160Z,19.94
2023-05-25T07:23:41.032Z,20.10
2023-05-25T07:26:08.422Z,19.93
2023-05-25T07:28:35.649Z,20.11
2023-05-25T07:31:03.264Z,20.96
2023-05-25T07:33:31.129Z,20.69
2023-05-25T07:35:58.289Z,20.20
2023-05-25T07:38:25.780Z,20.89
2023-05-25T07:40:53.734Z,20.93
2023-05-25T07:43:23.092Z,20.86
2023-05-25T07:45:50.295Z,21.25
2023-05-25T07:48:17.872Z,21.86
2023-05-25T07:50:45.238Z,21.61
2023-05-25T07:53:12.783Z,22.45
2023-05-25T07:55:40.301Z,21.79
2023-05-25T07:58:08.681Z,21.59
2023-05-25T08:00:36.244Z,22.15
2023-05-25T08:03:04.714Z,22.11
2023-05-25T08:05:32.235Z,21.41
2023-05-25T08:08:00.074Z,21.66
2023-05-25T08:10:36.604Z,22.09
2023-05-25T08:13:03.850Z,22.00
2023-05-25T08:15:31.756Z,22.10
2023-05-25T08:17:59.345Z,22.26
2023-05-25T08:20:27.067Z,21.89
2023-05-25T08:22:54.486Z,22.13
2023-05-25T08:25:22.064Z,22.53
2023-05-25T08:27:50.127Z,22.24
2023-05-25T08:30:17.676Z,22.47
2023-05-25T08:32:48.160Z,22.64
2023-05-25T08:35:17.230Z,22.39
2023-05-25T08:37:45.115Z,22.64
2023-05-25T08:40:16.088Z,22.43
2023-05-25T08:42:44.562Z,23.18
2023-05-25T08:45:22.623Z,22.43
2023-05-25T08:47:57.802Z,22.34
2023-05-25T08:50:26.987Z,21.92
2023-05-25T08:52:54.453Z,22.11
2023-05-25T08:55:23.580Z,22.08
2023-05-25T08:57:56.450Z,22.01
2023-05-25T09:00:30.216Z,22.58
2023-05-25T09:03:26.914Z,22.64
2023-05-25T09:05:55.892Z,21.71
2023-05-25T09:08:23.611Z,21.71
2023-05-25T09:10:51.608Z,22.04
2023-05-25T09:13:22.807Z,21.21
2023-05-25T09:15:51.802Z,21.66
2023-05-25T09:18:19.659Z,21.66
2023-05-25T09:20:47.719Z,22.16
2023-05-25T09:23:16.289Z,21.78
2023-05-25T09:25:44.555Z,22.01
2023-05-25T09:30:42.890Z,21.59
2023-05-25T09:33:13.626Z,22.14
2023-05-25T09:35:41.586Z,21.24
2023-05-25T09:38:09.279Z,21.69
2023-05-25T09:40:37.798Z,21.35
2023-05-25T09:43:05.389Z,22.14
2023-05-25T09:45:32.865Z,21.90
2023-05-25T09:48:01.317Z,21.67
2023-05-25T09:50:28.960Z,21.25
2023-05-25T09:52:58.678Z,21.64
2023-05-25T09:55:33.874Z,21.76
2023-05-25T09:58:13.431Z,21.38
2023-05-25T10:00:40.982Z,21.17
2023-05-25T10:03:08.640Z,21.28
2023-05-25T10:05:36.191Z,21.46
2023-05-25T10:08:03.571Z,21.30
2023-05-25T10:10:31.163Z,21.10
2023-05-25T10:12:58.707Z,21.31
2023-05-25T10:15:27.199Z,21.87
2023-05-25T10:17:55.426Z,21.87
2023-05-25T10:20:29.083Z,21.67
2023-05-25T10:23:20.766Z,20.91
2023-05-25T10:25:48.840Z,20.59
2023-05-25T10:28:28.783Z,22.29
2023-05-25T10:30:57.402Z,22.13
2023-05-25T10:33:25.246Z,22.40
2023-05-25T10:36:03.166Z,21.83
2023-05-25T10:38:39.489Z,21.61
2023-05-25T10:41:09.253Z,21.87
2023-05-25T10:43:37.445Z,21.19
2023-05-25T10:46:06.458Z,21.76
2023-05-25T10:48:45.556Z,21.75
2023-05-25T10:51:14.030Z,21.55
2023-05-25T10:53:49.982Z,21.95
2023-05-25T10:56:17.721Z,20.97
2023-05-25T10:58:46.659Z,21.49
2023-05-25T11:01:14.761Z,20.81
2023-05-25T11:03:48.617Z,21.54
2023-05-25T11:06:21.543Z,21.54
2023-05-25T11:09:03.871Z,21.24
2023-05-25T11:11:44.274Z,21.32
2023-05-25T11:14:30.376Z,22.07
2023-05-25T11:17:14.478Z,21.08
2023-05-25T11:19:43.496Z,20.01
2023-05-25T11:22:46.765Z,20.05
2023-05-25T11:25:39.502Z,19.79
2023-05-25T11:28:07.761Z,20.43
2023-05-25T11:30:35.512Z,19.99
2023-05-25T11:33:04.096Z,18.91
2023-05-25T11:35:37.302Z,19.08
2023-05-25T11:38:08.640Z,20.16
2023-05-25T11:40:40.145Z,19.38
2023-05-25T11:43:08.240Z,18.69
2023-05-25T11:45:37.558Z,18.56
2023-05-25T11:48:05.987Z,18.69
2023-05-25T11:50:34.038Z,19.20
2023-05-25T11:53:05.999Z,19.55
2023-05-25T11:55:34.204Z,19.85
2023-05-25T11:58:01.673Z,19.14
2023-05-25T12:00:29.760Z,19.86
2023-05-25T12:02:57.973Z,19.38
2023-05-25T12:05:25.821Z,20.08
2023-05-25T12:07:53.855Z,20.54
2023-05-25T12:10:21.647Z,20.75
2023-05-25T12:12:52.364Z,20.62
2023-05-25T12:15:23.641Z,20.35
2023-05-25T12:17:51.541Z,21.40
2023-05-25T12:20:19.234Z,21.14
2023-05-25T12:22:47.347Z,21.15
2023-05-25T12:25:15.856Z,21.13
2023-05-25T12:27:46.379Z,21.05
2023-05-25T12:30:14.269Z,21.66
2023-05-25T12:33:03.783Z,20.83
2023-05-25T12:35:46.687Z,21.28
2023-05-25T12:38:18.348Z,21.32
2023-05-25T12:40:46.181Z,21.43
2023-05-25T12:43:14.982Z,21.46
2023-05-25T12:45:42.794Z,21.61
2023-05-25T12:48:11.106Z,22.03
2023-05-25T12:50:38.732Z,22.63
2023-05-25T12:53:06.309Z,22.60
2023-05-25T12:55:35.446Z,22.41
2023-05-25T12:58:07.642Z,23.24
2023-05-25T13:00:39.122Z,22.95
2023-05-25T13:03:09.685Z,23.55
2023-05-25T13:05:37.813Z,23.52
2023-05-25T13:08:06.137Z,23.73
2023-05-25T13:10:33.964Z,24.13
2023-05-25T13:13:02.158Z,24.78
2023-05-25T13:15:29.919Z,24.53
2023-05-25T13:17:58.485Z,24.77
2023-05-25T13:20:27.395Z,25.09
2023-05-25T13:22:57.945Z,25.87
2023-05-25T13:25:28.347Z,25.89
2023-05-25T13:27:57.630Z,26.63
2023-05-25T13:30:25.134Z,26.48
2023-05-25T13:32:53.377Z,27.11
2023-05-25T13:35:38.225Z,27.40
2023-05-25T13:38:09.197Z,27.38
2023-05-25T13:40:38.443Z,27.21
2023-05-25T13:43:06.371Z,27.55
2023-05-25T13:45:34.143Z,27.48
2023-05-25T13:48:03.256Z,26.85
2023-05-25T13:50:33.029Z,27.34
2023-05-25T13:53:00.272Z,27.63
2023-05-25T13:55:27.913Z,26.88
2023-05-25T13:57:55.913Z,28.04
2023-05-25T14:00:23.781Z,28.06
2023-05-25T14:02:51.552Z,28.75
2023-05-25T14:05:20.077Z,28.61
2023-05-25T14:07:47.961Z,28.92
2023-05-25T14:10:15.996Z,28.91
2023-05-25T14:12:44.161Z,29.17
2023-05-25T14:15:14.502Z,29.79
2023-05-25T14:17:42.952Z,29.49
2023-05-25T14:20:11.552Z,29.86
2023-05-25T14:22:40.712Z,30.26
2023-05-25T14:25:08.558Z,29.82
2023-05-25T14:27:36.649Z,30.45
2023-05-25T14:30:04.465Z,29.84
2023-05-25T14:32:31.820Z,29.96
2023-05-25T14:34:59.311Z,30.17
2023-05-25T14:37:27.198Z,29.81
2023-05-25T14:39:54.929Z,30.23
2023-05-25T14:42:22.562Z,29.67
2023-05-25T14:44:50.041Z,30.00
2023-05-25T14:47:17.783Z,29.41
2023-05-25T14:49:45.144Z,30.08
2023-05-25T14:52:12.880Z,30.50
2023-05-25T14:54:44.638Z,30.51
2023-05-25T14:57:12.400Z,30.57
2023-05-25T14:59:40.169Z,30.50
2023-05-25T15:02:07.838Z,30.73
2023-05-25T15:04:35.521Z,31.54
2023-05-25T15:07:03.587Z,31.34
2023-05-25T15:09:33.078Z,31.03
2023-05-25T15:12:01.914Z,30.92
2023-05-25T15:14:29.166Z,30.99
2023-05-25T15:16:57.243Z,30.62
2023-05-25T15:19:25.606Z,31.04
2023-05-25T15:21:52.939Z,31.01
2023-05-25T15:24:20.523Z,31.32
2023-05-25T15:26:47.998Z,30.28
2023-05-25T15:29:15.541Z,30.09
2023-05-25T15:31:43.079Z,30.21
2023-05-25T15:34:10.957Z,30.34
2023-05-25T15:36:38.175Z,31.06
2023-05-25T15:39:08.548Z,31.09
2023-05-25T15:41:36.295Z,31.57
2023-05-25T15:44:07.874Z,31.89
2023-05-25T15:46:35.859Z,31.97
2023-05-25T15:49:03.624Z,31.50
2023-05-25T15:51:32.493Z,31.70
2023-05-25T15:54:00.043Z,32.81
2023-05-25T15:56:27.756Z,32.61
2023-05-25T15:58:55.595Z,32.65
2023-05-25T16:01:23.484Z,32.90
2023-05-25T16:03:51.265Z,32.47
2023-05-25T16:06:18.951Z,32.46
2023-05-25T16:08:46.314Z,32.29
2023-05-25T16:11:14.093Z,32.29
2023-05-25T16:13:41.327Z,32.47
2023-05-25T16:16:09.698Z,31.88
2023-05-25T16:18:37.678Z,31.99
2023-05-25T16:21:05.495Z,32.42
2023-05-25T16:23:33.212Z,31.50
2023-05-25T16:26:00.856Z,31.44
2023-05-25T16:28:28.195Z,31.54
2023-05-25T16:30:55.844Z,31.46
2023-05-25T16:33:23.563Z,31.65
2023-05-25T16:35:53.729Z,32.13
2023-05-25T16:38:21.563Z,32.32
2023-05-25T16:40:48.926Z,31.95
2023-05-25T16:43:16.551Z,31.47
2023-05-25T16:45:44.212Z,30.92
2023-05-25T16:48:12.038Z,30.89
2023-05-25T16:50:40.170Z,31.68
2023-05-25T16:53:07.890Z,31.85
2023-05-25T16:55:35.693Z,32.83
2023-05-25T16:58:03.740Z,32.68
2023-05-25T17:00:31.358Z,32.83
2023-05-25T17:02:59.040Z,32.62
2023-05-25T17:05:26.943Z,33.25
2023-05-25T17:07:54.419Z,33.39
2023-05-25T17:10:22.132Z,33.99
2023-05-25T17:12:49.405Z,33.69
2023-05-25T17:15:17.199Z,32.65
2023-05-25T17:17:44.679Z,32.02
2023-05-25T17:20:12.201Z,32.30
2023-05-25T17:22:39.844Z,32.25
2023-05-25T17:25:09.320Z,32.27
2023-05-25T17:27:36.975Z,31.74
2023-05-25T17:30:04.971Z,31.27
2023-05-25T17:32:32.678Z,31.26
2023-05-25T17:35:00.600Z,31.50
2023-05-25T17:37:28.369Z,31.86
2023-05-25T17:39:56.157Z,31.83
2023-05-25T17:42:23.856Z,31.39
2023-05-25T17:44:51.256Z,30.82
2023-05-25T17:47:18.947Z,30.96
2023-05-25T17:49:46.537Z,31.02
2023-05-25T17:52:14.133Z,31.07
2023-05-25T17:54:41.491Z,31.75
2023-05-25T17:57:09.404Z,32.63
2023-05-25T17:59:36.870Z,32.62
2023-05-25T18:05:10.796Z,32.02
2023-05-25T18:07:38.570Z,32.22
2023-05-25T18:19:20.849Z,31.76
2023-05-25T18:21:50.264Z,31.51
2023-05-25T18:24:17.865Z,32.23
2023-05-25T18:26:46.401Z,31.90
2023-05-25T18:29:14.001Z,31.61
2023-05-25T18:31:46.000Z,31.76
2023-05-25T18:34:13.409Z,31.70
2023-05-25T18:36:40.730Z,31.97
2023-05-25T18:39:08.354Z,31.81
2023-05-25T18:41:36.374Z,32.02
2023-05-25T18:44:03.974Z,32.36
2023-05-25T18:46:31.865Z,32.95
2023-05-25T18:49:00.339Z,33.11
2023-05-25T18:51:27.785Z,33.35
2023-05-25T18:53:55.873Z,33.20
2023-05-25T18:56:23.426Z,33.34
2023-05-25T18:58:54.510Z,34.11
2023-05-25T19:01:22.882Z,34.33
2023-05-25T19:03:50.800Z,34.43
2023-05-25T19:06:18.950Z,35.31
2023-05-25T19:08:49.765Z,35.58
2023-05-25T19:30:05.381Z,36.10
2023-05-25T19:32:33.833Z,35.48
2023-05-25T19:35:01.810Z,34.83
2023-05-25T19:37:29.101Z,34.75
2023-05-25T19:39:58.133Z,35.25
2023-05-25T19:42:25.561Z,34.69
2023-05-25T19:44:53.208Z,34.48
2023-05-25T19:47:21.725Z,34.54
2023-05-25T19:49:54.465Z,33.95
2023-05-25T19:52:22.108Z,34.40
2023-05-25T19:54:50.784Z,33.98
2023-05-25T19:57:19.706Z,34.40
2023-05-25T19:59:47.185Z,34.54
2023-05-25T20:02:14.862Z,34.03
2023-05-25T20:04:42.716Z,34.15
2023-05-25T20:07:10.537Z,33.57
2023-05-25T20:09:38.999Z,34.12
2023-05-25T20:12:07.059Z,33.54
2023-05-25T20:14:35.163Z,34.05
2023-05-25T20:17:02.362Z,33.45
2023-05-25T20:19:29.776Z,33.73
2023-05-25T20:21:59.600Z,33.51
2023-05-25T20:24:26.978Z,33.37
2023-05-25T20:26:56.480Z,33.56
2023-05-25T20:29:23.909Z,33.61
2023-05-25T20:31:54.644Z,33.83
2023-05-25T20:34:22.630Z,33.39
2023-05-25T21:33:00.515Z,39.39
2023-05-25T21:35:42.662Z,39.11
2023-05-25T21:38:20.320Z,38.87
2023-05-25T21:40:56.475Z,38.66
2023-05-25T21:43:56.679Z,39.01
2023-05-25T21:46:23.921Z,38.17
2023-05-25T21:48:51.436Z,38.06
2023-05-25T21:51:18.770Z,37.76
2023-05-25T21:53:48.761Z,37.90
2023-05-25T21:56:16.531Z,37.98
2023-05-25T21:58:44.539Z,36.45
2023-05-25T22:01:12.184Z,36.60
2023-05-25T22:03:39.579Z,36.33
2023-05-25T22:06:07.093Z,36.34
2023-05-25T22:08:35.555Z,36.43
2023-05-25T22:11:02.821Z,36.46
2023-05-25T22:13:30.045Z,35.90
2023-05-25T22:15:57.430Z,36.33
2023-05-25T22:18:25.231Z,36.74
2023-05-25T22:20:52.936Z,35.91
2023-05-25T22:23:21.089Z,36.04
2023-05-25T22:25:48.423Z,34.91
2023-05-25T22:28:16.517Z,32.31
2023-05-25T22:30:44.207Z,31.88
2023-05-25T22:33:11.851Z,31.37
2023-05-25T22:35:39.450Z,30.75
2023-05-25T22:38:06.997Z,29.89
2023-05-25T22:40:34.656Z,29.30
2023-05-25T22:43:01.813Z,30.13
2023-05-25T22:45:29.178Z,30.29
2023-05-25T22:47:56.554Z,30.22
2023-05-25T22:50:24.080Z,28.95
2023-05-25T22:52:51.890Z,28.14
2023-05-25T22:55:19.205Z,27.46
2023-05-25T22:57:46.977Z,26.84
2023-05-25T23:00:15.010Z,26.95
2023-05-25T23:02:42.605Z,27.61
2023-05-25T23:05:10.811Z,27.60
2023-05-25T23:07:38.315Z,27.33
2023-05-25T23:10:06.097Z,27.07
2023-05-25T23:12:33.309Z,27.39
2023-05-25T23:15:01.133Z,29.15
2023-05-25T23:17:28.872Z,28.42
2023-05-25T23:19:56.405Z,27.03
2023-05-25T23:22:24.116Z,26.55
2023-05-25T23:24:51.786Z,26.88
2023-05-25T23:27:19.250Z,27.39
2023-05-25T23:29:46.391Z,26.64
2023-05-25T23:32:13.859Z,26.56
2023-05-25T23:34:41.482Z,25.27
2023-05-25T23:37:09.285Z,22.89
2023-05-25T23:39:36.725Z,20.71
2023-05-25T23:42:04.367Z,18.66
2023-05-25T23:44:31.917Z,16.95
2023-05-25T23:46:59.601Z,15.21
2023-05-25T23:49:26.916Z,13.87
2023-05-25T23:51:54.474Z,13.14
2023-05-25T23:54:22.113Z,12.31
2023-05-25T23:56:49.916Z,12.79
2023-05-25T23:59:17.697Z,13.30
